createdAt,value
2017-12-25T00:00:37.704Z,6.40
2017-12-25T00:03:15.716Z,6.30
2017-12-25T00:05:50.024Z,6.00
2017-12-25T00:10:57.524Z,6.20
2017-12-25T00:13:26.805Z,7.07
2017-12-25T00:16:17.670Z,6.70
2017-12-25T00:21:26.316Z,5.90
2017-12-25T00:23:54.453Z,6.67
2017-12-25T00:26:25.837Z,6.43
2017-12-25T00:28:54.466Z,6.40
2017-12-25T00:31:23.643Z,6.83
2017-12-25T00:39:09.256Z,6.60
2017-12-25T00:48:03.462Z,6.00
2017-12-25T00:50:30.383Z,5.67
2017-12-25T00:52:57.424Z,5.60
2017-12-25T00:55:24.459Z,5.40
2017-12-25T00:57:51.354Z,6.27
2017-12-25T01:00:18.241Z,6.60
2017-12-25T01:02:45.041Z,5.03
2017-12-25T01:05:11.841Z,6.57
2017-12-25T01:07:38.686Z,6.13
2017-12-25T01:10:05.574Z,6.50
2017-12-25T01:12:32.448Z,7.07
2017-12-25T01:14:59.435Z,7.37
2017-12-25T01:17:26.267Z,7.17
2017-12-25T01:19:53.352Z,6.53
2017-12-25T01:22:20.289Z,6.73
2017-12-25T01:24:47.086Z,7.23
2017-12-25T01:27:14.028Z,6.30
2017-12-25T01:29:40.861Z,6.60
2017-12-25T01:32:07.699Z,6.70
2017-12-25T01:34:34.557Z,6.73
2017-12-25T01:37:01.454Z,6.50
2017-12-25T01:39:28.312Z,6.57
2017-12-25T01:41:55.138Z,6.30
2017-12-25T01:44:22.002Z,6.53
2017-12-25T01:46:54.602Z,7.07
2017-12-25T01:49:21.479Z,6.13
2017-12-25T01:51:48.406Z,6.50
2017-12-25T01:54:15.392Z,6.30
2017-12-25T01:56:42.260Z,7.00
2017-12-25T01:59:11.029Z,7.00
2017-12-25T02:01:52.723Z,6.17
2017-12-25T02:04:22.794Z,6.83
2017-12-25T02:06:55.471Z,6.80
2017-12-25T02:09:22.480Z,6.67
2017-12-25T02:11:49.323Z,6.73
2017-12-25T02:14:16.168Z,6.60
2017-12-25T02:16:43.028Z,6.40
2017-12-25T02:19:09.942Z,6.60
2017-12-25T02:21:36.774Z,6.30
2017-12-25T02:24:03.604Z,6.77
2017-12-25T02:26:30.508Z,6.10
2017-12-25T02:28:57.351Z,6.33
2017-12-25T02:31:24.285Z,6.03
2017-12-25T02:33:51.075Z,6.57
2017-12-25T02:36:17.917Z,6.50
2017-12-25T02:38:44.802Z,6.90
2017-12-25T02:41:11.595Z,5.90
2017-12-25T02:43:38.441Z,5.83
2017-12-25T02:46:05.310Z,7.00
2017-12-25T02:48:32.158Z,7.43
2017-12-25T02:50:58.958Z,6.50
2017-12-25T02:53:25.832Z,7.37
2017-12-25T02:55:52.625Z,6.10
2017-12-25T02:58:19.478Z,7.10
2017-12-25T03:00:46.380Z,6.50
2017-12-25T03:03:13.217Z,6.03
2017-12-25T03:05:40.041Z,6.27
2017-12-25T03:08:06.857Z,6.40
2017-12-25T03:10:33.673Z,5.83
2017-12-25T03:13:00.505Z,6.80
2017-12-25T03:15:27.329Z,6.40
2017-12-25T03:17:54.197Z,6.73
2017-12-25T03:20:21.038Z,5.83
2017-12-25T03:22:47.930Z,6.93
2017-12-25T03:25:14.732Z,6.47
2017-12-25T03:27:41.566Z,7.13
2017-12-25T03:30:08.418Z,7.50
2017-12-25T03:32:35.250Z,6.90
2017-12-25T03:35:02.174Z,6.20
2017-12-25T03:37:28.941Z,6.57
2017-12-25T03:39:55.787Z,7.00
2017-12-25T03:42:22.692Z,6.90
2017-12-25T03:44:49.587Z,7.10
2017-12-25T03:47:16.422Z,7.13
2017-12-25T03:49:43.242Z,6.80
2017-12-25T03:52:10.032Z,6.77
2017-12-25T03:54:36.865Z,6.90
2017-12-25T03:57:03.691Z,6.80
2017-12-25T03:59:30.505Z,6.97
2017-12-25T04:01:57.346Z,6.57
2017-12-25T04:04:24.154Z,6.00
2017-12-25T04:06:50.987Z,7.17
2017-12-25T04:09:17.818Z,7.10
2017-12-25T04:11:44.623Z,7.57
2017-12-25T04:14:11.464Z,6.77
2017-12-25T04:16:38.289Z,6.60
2017-12-25T04:19:05.075Z,7.93
2017-12-25T04:21:31.952Z,7.23
2017-12-25T04:23:58.753Z,8.27
2017-12-25T04:26:25.600Z,8.20
2017-12-25T04:28:52.408Z,8.03
2017-12-25T04:31:19.273Z,8.00
2017-12-25T04:33:46.175Z,7.80
2017-12-25T04:36:13.054Z,9.10
2017-12-25T04:38:39.864Z,7.13
2017-12-25T04:41:06.693Z,7.47
2017-12-25T04:43:33.961Z,7.73
2017-12-25T04:46:00.874Z,7.70
2017-12-25T04:48:27.730Z,7.50
2017-12-25T04:50:54.568Z,7.73
2017-12-25T04:53:21.429Z,7.57
2017-12-25T04:55:48.234Z,7.30
2017-12-25T04:58:15.096Z,8.10
2017-12-25T05:00:41.922Z,7.60
2017-12-25T05:03:08.803Z,7.37
2017-12-25T05:05:35.819Z,7.37
2017-12-25T05:08:02.621Z,7.50
2017-12-25T05:10:29.492Z,7.53
2017-12-25T05:12:56.296Z,8.00
2017-12-25T05:15:23.124Z,8.30
2017-12-25T05:17:49.978Z,8.40
2017-12-25T05:20:16.791Z,7.53
2017-12-25T05:22:43.652Z,9.30
2017-12-25T05:25:10.622Z,8.60
2017-12-25T05:27:37.472Z,7.50
2017-12-25T05:30:04.425Z,7.13
2017-12-25T05:32:31.258Z,8.10
2017-12-25T05:34:58.106Z,7.23
2017-12-25T05:37:24.958Z,7.80
2017-12-25T05:39:51.833Z,8.17
2017-12-25T05:42:18.698Z,7.53
2017-12-25T05:44:45.572Z,7.80
2017-12-25T05:47:12.420Z,8.23
2017-12-25T05:49:39.314Z,9.60
2017-12-25T05:52:06.147Z,8.33
2017-12-25T05:54:33.010Z,8.40
2017-12-25T05:56:59.823Z,7.73
2017-12-25T05:59:26.670Z,8.57
2017-12-25T06:01:53.482Z,8.20
2017-12-25T06:04:20.312Z,8.50
2017-12-25T06:06:47.371Z,8.30
2017-12-25T06:09:14.290Z,8.87
2017-12-25T06:11:41.219Z,8.70
2017-12-25T06:14:08.025Z,8.10
2017-12-25T06:16:34.869Z,8.00
2017-12-25T06:19:01.833Z,8.60
2017-12-25T06:21:28.678Z,8.40
2017-12-25T06:23:55.527Z,7.37
2017-12-25T06:26:23.423Z,7.67
2017-12-25T06:28:50.388Z,8.20
2017-12-25T06:31:17.315Z,8.40
2017-12-25T06:33:44.255Z,9.60
2017-12-25T06:36:11.097Z,7.80
2017-12-25T06:38:37.977Z,9.53
2017-12-25T06:41:04.869Z,9.60
2017-12-25T06:43:31.776Z,8.37
2017-12-25T06:45:58.642Z,9.27
2017-12-25T06:48:25.465Z,9.43
2017-12-25T06:50:52.346Z,9.00
2017-12-25T06:53:19.256Z,8.90
2017-12-25T06:55:46.115Z,10.40
2017-12-25T06:58:12.926Z,9.63
2017-12-25T07:00:39.913Z,10.17
2017-12-25T07:03:06.778Z,9.07
2017-12-25T07:05:33.710Z,9.90
2017-12-25T07:08:00.566Z,9.23
2017-12-25T07:10:27.381Z,10.33
2017-12-25T07:12:54.356Z,9.87
2017-12-25T07:15:21.306Z,10.13
2017-12-25T07:17:48.161Z,9.40
2017-12-25T07:20:15.195Z,8.60
2017-12-25T07:22:41.996Z,9.20
2017-12-25T07:25:08.877Z,10.90
2017-12-25T07:27:35.766Z,10.20
2017-12-25T07:30:02.612Z,10.03
2017-12-25T07:32:29.482Z,9.33
2017-12-25T07:34:56.370Z,9.63
2017-12-25T07:37:23.283Z,8.57
2017-12-25T07:39:50.220Z,9.30
2017-12-25T07:42:17.128Z,9.57
2017-12-25T07:44:43.966Z,9.60
2017-12-25T07:47:10.860Z,9.70
2017-12-25T07:49:37.674Z,10.40
2017-12-25T07:52:04.555Z,9.73
2017-12-25T07:54:31.397Z,9.70
2017-12-25T07:56:58.308Z,9.40
2017-12-25T07:59:25.150Z,9.60
2017-12-25T08:01:51.988Z,9.70
2017-12-25T08:04:18.823Z,10.10
2017-12-25T08:06:45.676Z,9.63
2017-12-25T08:09:12.627Z,10.67
2017-12-25T08:11:39.538Z,10.00
2017-12-25T08:14:07.141Z,9.97
2017-12-25T08:16:34.110Z,9.10
2017-12-25T08:19:01.087Z,8.93
2017-12-25T08:21:29.644Z,9.53
2017-12-25T08:23:56.653Z,9.83
2017-12-25T08:26:23.779Z,9.37
2017-12-25T08:28:50.641Z,8.87
2017-12-25T08:31:17.519Z,9.77
2017-12-25T08:33:44.371Z,10.00
2017-12-25T08:36:11.284Z,9.20
2017-12-25T08:38:38.925Z,10.10
2017-12-25T08:41:05.740Z,9.80
2017-12-25T08:43:32.772Z,9.73
2017-12-25T08:45:59.703Z,10.33
2017-12-25T08:48:26.615Z,10.50
2017-12-25T08:50:53.492Z,9.97
2017-12-25T08:53:20.342Z,10.10
2017-12-25T08:55:48.162Z,10.23
2017-12-25T08:58:15.824Z,11.53
2017-12-25T09:00:42.687Z,10.97
2017-12-25T09:03:09.634Z,11.43
2017-12-25T09:05:36.660Z,12.20
2017-12-25T09:08:03.523Z,12.30
2017-12-25T09:10:30.385Z,10.10
2017-12-25T09:12:57.277Z,11.50
2017-12-25T09:15:25.527Z,11.10
2017-12-25T09:17:52.437Z,11.57
2017-12-25T09:20:20.022Z,10.13
2017-12-25T09:22:46.977Z,10.50
2017-12-25T09:25:13.995Z,9.73
2017-12-25T09:27:41.743Z,10.70
2017-12-25T09:30:08.590Z,11.43
2017-12-25T09:32:35.462Z,11.93
2017-12-25T09:35:03.270Z,10.53
2017-12-25T09:37:30.119Z,11.10
2017-12-25T09:39:57.088Z,10.20
2017-12-25T09:42:24.008Z,13.10
2017-12-25T09:44:50.964Z,11.70
2017-12-25T09:47:17.817Z,12.00
2017-12-25T09:49:44.753Z,12.70
2017-12-25T09:52:11.731Z,11.13
2017-12-25T09:54:38.830Z,12.20
2017-12-25T09:57:09.612Z,10.70
2017-12-25T09:59:36.535Z,11.90
2017-12-25T10:02:06.269Z,13.73
2017-12-25T10:04:33.160Z,12.00
2017-12-25T10:06:59.981Z,11.50
2017-12-25T10:09:26.910Z,11.53
2017-12-25T10:11:53.805Z,12.30
2017-12-25T10:14:20.802Z,10.90
2017-12-25T10:16:47.789Z,11.23
2017-12-25T10:19:14.693Z,10.93
2017-12-25T10:21:41.573Z,12.13
2017-12-25T10:24:08.455Z,11.53
2017-12-25T10:26:35.307Z,11.27
2017-12-25T10:29:02.192Z,10.87
2017-12-25T10:31:29.109Z,11.70
2017-12-25T10:33:56.837Z,11.07
2017-12-25T10:36:23.995Z,11.10
2017-12-25T10:38:50.941Z,11.00
2017-12-25T10:41:18.666Z,11.10
2017-12-25T10:43:45.564Z,11.43
2017-12-25T10:46:12.482Z,13.03
2017-12-25T10:48:39.568Z,11.30
2017-12-25T10:51:08.574Z,11.03
2017-12-25T10:56:31.273Z,11.53
2017-12-25T10:58:58.339Z,10.90
2017-12-25T11:01:25.242Z,10.67
2017-12-25T11:03:52.160Z,11.27
2017-12-25T11:06:22.935Z,11.17
2017-12-25T11:08:50.795Z,9.67
2017-12-25T11:11:17.804Z,11.47
2017-12-25T11:13:46.454Z,11.60
2017-12-25T11:16:13.402Z,10.80
2017-12-25T11:18:40.501Z,11.40
2017-12-25T11:21:07.400Z,11.20
2017-12-25T11:23:41.116Z,11.63
2017-12-25T11:26:08.160Z,10.90
2017-12-25T11:28:35.041Z,11.83
2017-12-25T11:31:08.580Z,11.63
2017-12-25T11:33:39.414Z,11.03
2017-12-25T11:36:06.404Z,11.00
2017-12-25T11:38:33.361Z,10.80
2017-12-25T11:41:01.091Z,10.50
2017-12-25T11:43:28.288Z,9.93
2017-12-25T11:45:55.270Z,10.33
2017-12-25T11:48:23.999Z,11.13
2017-12-25T11:50:50.869Z,9.50
2017-12-25T11:53:17.725Z,9.80
2017-12-25T11:55:44.609Z,11.20
2017-12-25T11:58:13.238Z,11.10
2017-12-25T12:00:40.163Z,10.40
2017-12-25T12:03:07.186Z,11.13
2017-12-25T12:05:34.174Z,10.80
2017-12-25T12:08:03.095Z,11.00
2017-12-25T12:10:30.055Z,9.77
2017-12-25T12:12:58.630Z,10.30
2017-12-25T12:15:29.940Z,9.53
2017-12-25T12:17:57.240Z,9.23
2017-12-25T12:20:24.096Z,9.80
2017-12-25T12:22:50.942Z,11.23
2017-12-25T12:25:17.862Z,10.87
2017-12-25T12:27:44.878Z,10.10
2017-12-25T12:30:14.617Z,10.73
2017-12-25T12:32:41.596Z,10.03
2017-12-25T12:35:09.294Z,10.80
2017-12-25T12:37:36.682Z,10.50
2017-12-25T12:40:05.735Z,11.20
2017-12-25T12:42:32.759Z,9.53
2017-12-25T12:45:02.560Z,10.83
2017-12-25T12:47:31.916Z,11.00
2017-12-25T12:49:58.707Z,10.83
2017-12-25T12:52:25.634Z,11.00
2017-12-25T12:54:52.488Z,10.60
2017-12-25T12:57:21.453Z,9.37
2017-12-25T12:59:48.629Z,10.93
2017-12-25T13:02:21.910Z,10.13
2017-12-25T13:04:49.084Z,9.80
2017-12-25T13:07:16.244Z,10.73
2017-12-25T13:09:44.039Z,11.23
2017-12-25T13:12:11.332Z,10.27
2017-12-25T13:14:39.568Z,10.20
2017-12-25T13:17:10.087Z,9.60
2017-12-25T13:19:42.088Z,10.17
2017-12-25T13:42:41.070Z,9.40
2017-12-25T13:53:58.432Z,9.90
2017-12-25T13:56:30.274Z,10.77
2017-12-25T13:59:01.371Z,10.90
2017-12-25T14:01:29.289Z,10.87
2017-12-25T14:12:46.516Z,10.57
2017-12-25T14:18:09.696Z,9.90
2017-12-25T14:20:36.742Z,10.60
2017-12-25T14:23:03.652Z,11.10
2017-12-25T14:25:30.558Z,10.30
2017-12-25T14:27:57.524Z,10.37
2017-12-25T14:30:24.383Z,10.40
2017-12-25T14:32:52.319Z,11.23
2017-12-25T14:35:20.938Z,10.90
2017-12-25T14:37:48.010Z,11.00
2017-12-25T14:40:14.822Z,10.40
2017-12-25T14:42:41.901Z,11.10
2017-12-25T14:45:08.834Z,10.57
2017-12-25T14:47:35.721Z,10.97
2017-12-25T14:50:04.543Z,12.37
2017-12-25T14:52:32.916Z,11.73
2017-12-25T14:55:00.138Z,11.40
2017-12-25T14:57:26.974Z,11.23
2017-12-25T14:59:54.657Z,12.10
2017-12-25T15:02:21.512Z,11.47
2017-12-25T15:04:49.445Z,11.93
2017-12-25T15:07:16.457Z,12.13
2017-12-25T15:09:43.299Z,10.50
2017-12-25T15:12:10.108Z,11.93
2017-12-25T15:14:37.025Z,11.70
2017-12-25T15:17:03.828Z,11.33
2017-12-25T15:19:30.773Z,11.77
2017-12-25T15:21:58.558Z,11.10
2017-12-25T15:24:25.403Z,12.77
2017-12-25T15:26:52.299Z,11.80
2017-12-25T15:29:19.988Z,11.20
2017-12-25T15:31:48.775Z,12.93
2017-12-25T15:34:15.572Z,12.03
2017-12-25T15:36:43.447Z,12.20
2017-12-25T15:39:10.272Z,11.83
2017-12-25T15:41:37.181Z,11.93
2017-12-25T15:44:04.149Z,11.97
2017-12-25T15:46:31.322Z,12.93
2017-12-25T15:48:59.209Z,12.30
2017-12-25T15:51:26.115Z,11.50
2017-12-25T15:53:52.973Z,12.97
2017-12-25T15:56:22.143Z,11.60
2017-12-25T15:58:49.044Z,13.20
2017-12-25T16:01:15.848Z,11.90
2017-12-25T16:03:42.687Z,12.37
2017-12-25T16:06:09.591Z,11.20
2017-12-25T16:08:36.441Z,12.20
2017-12-25T16:11:03.255Z,12.90
2017-12-25T16:13:30.092Z,11.63
2017-12-25T16:15:56.949Z,12.93
2017-12-25T16:18:23.896Z,11.83
2017-12-25T16:20:50.721Z,12.10
2017-12-25T16:23:17.534Z,12.50
2017-12-25T16:28:18.806Z,13.63
2017-12-25T16:30:45.597Z,12.83
2017-12-25T16:33:12.477Z,13.80
2017-12-25T16:35:39.323Z,13.97
2017-12-25T16:38:06.207Z,12.97
2017-12-25T16:40:33.009Z,13.60
2017-12-25T16:43:00.046Z,13.70
2017-12-25T16:45:28.190Z,14.70
2017-12-25T16:47:54.991Z,12.80
2017-12-25T16:50:21.844Z,14.10
2017-12-25T16:52:48.829Z,13.20
2017-12-25T16:55:16.139Z,14.07
2017-12-25T16:57:45.174Z,14.40
2017-12-25T17:00:12.279Z,14.40
2017-12-25T17:02:39.134Z,13.33
2017-12-25T17:05:05.970Z,13.17
2017-12-25T17:07:32.822Z,14.90
2017-12-25T17:09:59.666Z,14.07
2017-12-25T17:12:27.068Z,14.47
2017-12-25T17:14:53.995Z,13.10
2017-12-25T17:17:20.829Z,14.50
2017-12-25T17:19:47.686Z,14.30
2017-12-25T17:22:14.567Z,13.90
2017-12-25T17:24:41.770Z,14.20
2017-12-25T17:27:09.543Z,14.23
2017-12-25T17:29:36.403Z,18.00
2017-12-25T17:32:06.905Z,18.17
2017-12-25T17:34:33.705Z,15.90
2017-12-25T17:37:00.666Z,15.30
2017-12-25T17:39:27.496Z,15.87
2017-12-25T17:41:54.539Z,14.67
2017-12-25T17:44:21.581Z,14.83
2017-12-25T17:46:49.446Z,15.30
2017-12-25T17:49:16.342Z,16.30
2017-12-25T17:51:43.172Z,15.73
2017-12-25T17:54:10.032Z,16.40
2017-12-25T17:56:36.993Z,17.37
2017-12-25T17:59:03.768Z,17.23
2017-12-25T18:01:33.710Z,16.40
2017-12-25T18:04:00.509Z,17.90
2017-12-25T18:06:27.403Z,17.37
2017-12-25T18:08:54.391Z,17.83
2017-12-25T18:11:21.238Z,16.50
2017-12-25T18:13:48.144Z,17.97
2017-12-25T18:16:14.985Z,18.80
2017-12-25T18:18:41.861Z,17.77
2017-12-25T18:21:08.710Z,16.70
2017-12-25T18:23:35.584Z,16.20
2017-12-25T18:26:02.356Z,17.17
2017-12-25T18:28:29.192Z,16.60
2017-12-25T18:30:56.001Z,16.83
2017-12-25T18:33:22.846Z,15.20
2017-12-25T18:35:49.642Z,16.10
2017-12-25T18:38:16.496Z,16.27
2017-12-25T18:40:43.316Z,16.93
2017-12-25T18:43:10.154Z,16.53
2017-12-25T18:45:37.926Z,17.20
2017-12-25T18:48:04.753Z,17.50
2017-12-25T18:50:31.740Z,16.60
2017-12-25T18:52:58.843Z,17.40
2017-12-25T18:55:25.657Z,17.67
2017-12-25T18:57:53.510Z,19.40
2017-12-25T19:00:20.428Z,18.10
2017-12-25T19:02:50.883Z,19.67
2017-12-25T19:05:17.919Z,19.77
2017-12-25T19:07:44.822Z,18.87
2017-12-25T19:10:11.858Z,17.70
2017-12-25T19:12:38.669Z,16.30
2017-12-25T19:15:05.518Z,18.70
2017-12-25T19:17:32.351Z,18.60
2017-12-25T19:19:59.296Z,17.07
2017-12-25T19:22:26.134Z,17.90
2017-12-25T19:24:53.005Z,20.00
2017-12-25T19:27:19.798Z,20.83
2017-12-25T19:29:46.587Z,20.67
2017-12-25T19:32:13.404Z,18.60
2017-12-25T19:34:40.262Z,20.90
2017-12-25T19:37:07.195Z,19.20
2017-12-25T19:39:34.062Z,20.20
2017-12-25T19:42:00.878Z,20.87
2017-12-25T19:44:28.416Z,22.10
2017-12-25T19:46:55.243Z,21.07
2017-12-25T19:49:22.237Z,19.43
2017-12-25T19:51:49.125Z,19.83
2017-12-25T19:54:16.030Z,18.20
2017-12-25T19:56:42.877Z,19.67
2017-12-25T19:59:09.854Z,19.17
2017-12-25T20:01:37.544Z,19.40
2017-12-25T20:04:04.442Z,18.27
2017-12-25T20:06:32.130Z,17.93
2017-12-25T20:09:00.046Z,19.83
2017-12-25T20:11:26.890Z,19.77
2017-12-25T20:13:53.724Z,18.77
2017-12-25T20:16:20.668Z,18.50
2017-12-25T20:18:48.110Z,19.03
2017-12-25T20:21:15.056Z,20.50
2017-12-25T20:23:43.926Z,21.50
2017-12-25T20:26:10.809Z,19.57
2017-12-25T20:28:38.485Z,19.27
2017-12-25T20:31:05.363Z,18.50
2017-12-25T20:33:32.229Z,20.23
2017-12-25T20:35:59.165Z,19.47
2017-12-25T20:38:26.210Z,19.20
2017-12-25T20:40:54.900Z,20.13
2017-12-25T20:43:22.973Z,18.90
2017-12-25T20:45:50.258Z,19.33
2017-12-25T20:53:48.117Z,22.60
2017-12-25T20:56:15.307Z,20.47
2017-12-25T20:58:43.862Z,22.20
2017-12-25T21:01:11.827Z,22.30
2017-12-25T21:06:11.846Z,20.63
2017-12-25T21:08:39.445Z,21.80
2017-12-25T21:11:07.253Z,22.37
2017-12-25T21:16:15.580Z,21.50
2017-12-25T21:18:42.467Z,21.40
2017-12-25T21:21:09.839Z,19.20
2017-12-25T21:23:38.418Z,21.77
2017-12-25T21:26:07.021Z,21.87
2017-12-25T21:28:34.211Z,22.53
2017-12-25T21:31:03.963Z,21.97
2017-12-25T21:33:30.900Z,25.73
2017-12-25T21:35:59.204Z,24.27
2017-12-25T21:38:26.084Z,22.40
2017-12-25T21:40:54.813Z,21.90
2017-12-25T21:43:22.046Z,21.27
2017-12-25T21:45:49.810Z,20.53
2017-12-25T21:48:16.665Z,20.90
2017-12-25T21:50:44.069Z,22.97
2017-12-25T21:53:12.910Z,20.37
2017-12-25T21:55:39.907Z,20.93
2017-12-25T21:58:06.801Z,23.77
2017-12-25T22:00:34.460Z,22.00
2017-12-25T22:03:02.389Z,22.17
2017-12-25T22:05:30.633Z,19.90
2017-12-25T22:07:58.068Z,20.83
2017-12-25T22:10:25.305Z,18.10
2017-12-25T22:12:52.421Z,21.30
2017-12-25T22:15:19.899Z,20.27
2017-12-25T22:20:42.707Z,18.77
2017-12-25T22:23:10.069Z,21.70
2017-12-25T22:25:38.373Z,20.90
2017-12-25T22:28:05.728Z,21.20
2017-12-25T22:33:19.241Z,22.17
2017-12-25T22:38:42.727Z,20.77
2017-12-25T22:41:09.791Z,22.17
2017-12-25T22:46:19.550Z,20.63
2017-12-25T22:48:46.926Z,21.40
2017-12-25T22:51:14.718Z,21.07
2017-12-25T22:53:41.668Z,22.67
2017-12-25T22:56:08.605Z,20.47
2017-12-25T22:58:35.653Z,19.60
2017-12-25T23:01:03.095Z,21.20
2017-12-25T23:03:30.041Z,20.20
2017-12-25T23:08:28.361Z,18.50
2017-12-25T23:10:56.214Z,19.43
2017-12-25T23:16:19.809Z,18.77
2017-12-25T23:21:33.150Z,18.77
2017-12-25T23:24:00.201Z,19.20
2017-12-25T23:31:29.853Z,18.47
2017-12-25T23:34:01.101Z,17.43
2017-12-25T23:41:47.418Z,17.70
2017-12-25T23:44:20.817Z,15.60
2017-12-25T23:49:28.786Z,16.20
2017-12-25T23:51:56.753Z,16.13
2017-12-25T23:54:24.222Z,17.87
2017-12-25T23:56:51.006Z,17.53
2017-12-25T23:59:17.811Z,18.67
